Time,TemperatureF,DewpointF,PressureIn,WindDirection,WindDirectionDegrees,WindSpeedMPH,WindSpeedGustMPH,Humidity,HourlyPrecipIn,Conditions,Clouds,dailyrainin,SolarRadiationWatts/m^2,SoftwareType,DateUTC
2013-02-24 00:14:00,23.5,19.0,29.77,WNW,303,0.0,-999.0,83,-99.99,,,0.13,0,weatherlink.com 1.10,2013-02-24 07:14:00,
2013-02-24 00:29:00,23.3,19.0,29.77,WNW,290,1.0,-999.0,84,-99.99,,,0.13,0,weatherlink.com 1.10,2013-02-24 07:29:00,
2013-02-24 00:44:00,23.2,19.0,29.77,NW,304,0.0,-999.0,85,-99.99,,,0.13,0,weatherlink.com 1.10,2013-02-24 07:44:00,
2013-02-24 00:59:00,23.0,19.0,29.77,NNW,334,10.0,-999.0,86,-99.99,,,0.13,0,weatherlink.com 1.10,2013-02-24 07:59:00,
2013-02-24 01:14:00,22.9,20.0,29.77,NW,313,0.0,-999.0,87,-99.99,,,0.13,0,weatherlink.com 1.10,2013-02-24 08:14:00,
2013-02-24 01:30:00,22.7,20.0,29.76,WNW,295,0.0,-999.0,88,-99.99,,,0.13,0,weatherlink.com 1.10,2013-02-24 08:30:00,
2013-02-24 01:45:00,22.5,20.0,29.75,WNW,299,2.0,-999.0,88,-99.99,,,0.13,0,weatherlink.com 1.10,2013-02-24 08:45:00,
2013-02-24 02:00:00,22.4,19.0,29.74,NNW,335,2.0,-999.0,88,-99.99,,,0.13,0,weatherlink.com 1.10,2013-02-24 09:00:00,
2013-02-24 02:15:00,22.4,20.0,29.74,NW,319,8.0,-999.0,89,-99.99,,,0.13,0,weatherlink.com 1.10,2013-02-24 09:15:00,
2013-02-24 02:30:00,22.4,20.0,29.74,NW,315,9.0,-999.0,89,-99.99,,,0.13,0,weatherlink.com 1.10,2013-02-24 09:30:00,
2013-02-24 02:45:00,22.2,20.0,29.74,NW,314,0.0,-999.0,89,-99.99,,,0.13,0,weatherlink.com 1.10,2013-02-24 09:45:00,
2013-02-24 03:00:00,22.1,19.0,29.73,NW,310,3.0,-999.0,89,-99.99,,,0.13,0,weatherlink.com 1.10,2013-02-24 10:00:00,
2013-02-24 03:15:00,21.9,19.0,29.73,WNW,299,2.0,-999.0,89,-99.99,,,0.13,0,weatherlink.com 1.10,2013-02-24 10:15:00,
2013-02-24 03:30:00,21.8,19.0,29.72,NW,315,0.0,-999.0,90,-99.99,,,0.13,0,weatherlink.com 1.10,2013-02-24 10:30:00,
2013-02-24 03:45:00,21.8,19.0,29.73,West,265,6.0,-999.0,90,-99.99,,,0.13,0,weatherlink.com 1.10,2013-02-24 10:45:00,
2013-02-24 04:00:00,21.8,19.0,29.73,NW,326,0.0,-999.0,90,-99.99,,,0.13,0,weatherlink.com 1.10,2013-02-24 11:00:00,
2013-02-24 04:15:00,21.6,19.0,29.73,NW,321,1.0,-999.0,90,-99.99,,,0.13,0,weatherlink.com 1.10,2013-02-24 11:15:00,
2013-02-24 04:30:00,21.6,19.0,29.74,NNW,327,3.0,-999.0,89,-99.99,,,0.13,0,weatherlink.com 1.10,2013-02-24 11:30:00,
2013-02-24 04:45:00,21.3,19.0,29.73,NW,317,0.0,-999.0,89,-99.99,,,0.13,0,weatherlink.com 1.10,2013-02-24 11:45:00,
2013-02-24 05:00:00,21.1,18.0,29.73,NW,315,0.0,-999.0,89,-99.99,,,0.13,0,weatherlink.com 1.10,2013-02-24 12:00:00,
2013-02-24 05:15:00,20.8,18.0,29.73,NW,309,3.0,-999.0,89,-99.99,,,0.00,0,weatherlink.com 1.10,2013-02-24 12:15:00,
2013-02-24 05:30:00,20.5,18.0,29.74,NNW,341,3.0,-999.0,89,-99.99,,,0.00,0,weatherlink.com 1.10,2013-02-24 12:30:00,
2013-02-24 05:45:00,20.5,18.0,29.74,WNW,292,0.0,-999.0,89,-99.99,,,0.00,0,weatherlink.com 1.10,2013-02-24 12:45:00,
2013-02-24 06:00:00,20.3,18.0,29.74,NNW,329,2.0,-999.0,89,-99.99,,,0.00,0,weatherlink.com 1.10,2013-02-24 13:00:00,
2013-02-24 06:15:00,20.2,18.0,29.74,NW,313,0.0,-999.0,89,-99.99,,,0.00,0,weatherlink.com 1.10,2013-02-24 13:15:00,
2013-02-24 06:30:00,20.0,17.0,29.74,NW,319,2.0,-999.0,89,-99.99,,,0.00,0,weatherlink.com 1.10,2013-02-24 13:30:00,
2013-02-24 06:45:00,20.0,17.0,29.74,WNW,297,0.0,-999.0,89,-99.99,,,0.00,0,weatherlink.com 1.10,2013-02-24 13:45:00,
2013-02-24 07:00:00,20.3,18.0,29.74,NW,325,3.0,-999.0,89,-99.99,,,0.00,9,weatherlink.com 1.10,2013-02-24 14:00:00,
2013-02-24 07:15:00,20.6,18.0,29.75,NW,324,0.0,-999.0,89,-99.99,,,0.00,18,weatherlink.com 1.10,2013-02-24 14:15:00,
2013-02-24 07:30:00,21.1,18.0,29.75,NNW,331,4.0,-999.0,89,-99.99,,,0.00,47,weatherlink.com 1.10,2013-02-24 14:30:00,
2013-02-24 07:45:00,21.8,19.0,29.75,NNW,342,3.0,-999.0,90,-99.99,,,0.00,47,weatherlink.com 1.10,2013-02-24 14:45:00,
2013-02-24 08:00:00,21.8,19.0,29.75,North,5,4.0,-999.0,90,-99.99,,,0.00,35,weatherlink.com 1.10,2013-02-24 15:00:00,
2013-02-24 08:15:00,21.8,19.0,29.76,NNW,336,4.0,-999.0,90,-99.99,,,0.00,47,weatherlink.com 1.10,2013-02-24 15:15:00,
2013-02-24 08:30:00,21.9,19.0,29.77,NNW,336,5.0,-999.0,89,-99.99,,,0.00,53,weatherlink.com 1.10,2013-02-24 15:30:00,
2013-02-24 08:45:00,22.1,19.0,29.77,North,355,8.0,-999.0,89,-99.99,,,0.00,69,weatherlink.com 1.10,2013-02-24 15:45:00,
2013-02-24 09:00:00,22.1,19.0,29.78,North,349,1.0,-999.0,89,-99.99,,,0.00,40,weatherlink.com 1.10,2013-02-24 16:00:00,
2013-02-24 09:15:00,22.1,19.0,29.79,NW,321,0.0,-999.0,89,-99.99,,,0.00,76,weatherlink.com 1.10,2013-02-24 16:15:00,
2013-02-24 09:30:00,22.4,20.0,29.80,North,350,0.0,-999.0,89,-99.99,,,0.00,104,weatherlink.com 1.10,2013-02-24 16:30:00,
2013-02-24 09:45:00,22.7,20.0,29.80,WNW,302,4.0,-999.0,89,-99.99,,,0.00,113,weatherlink.com 1.10,2013-02-24 16:45:00,
2013-02-24 10:00:00,23.0,20.0,29.81,NW,313,0.0,-999.0,89,-99.99,,,0.00,97,weatherlink.com 1.10,2013-02-24 17:00:00,
2013-02-24 10:15:00,23.0,20.0,29.82,NW,326,10.0,-999.0,89,-99.99,,,0.00,98,weatherlink.com 1.10,2013-02-24 17:15:00,
2013-02-24 10:31:00,23.0,20.0,29.83,NW,321,0.0,-999.0,89,-99.99,,,0.00,125,weatherlink.com 1.10,2013-02-24 17:31:00,
2013-02-24 10:46:00,23.3,20.0,29.82,NW,323,8.0,-999.0,88,-99.99,,,0.00,132,weatherlink.com 1.10,2013-02-24 17:46:00,
2013-02-24 11:01:00,23.5,21.0,29.83,NNW,336,6.0,-999.0,88,-99.99,,,0.00,123,weatherlink.com 1.10,2013-02-24 18:01:00,
2013-02-24 11:16:00,22.9,20.0,29.84,NNW,345,4.0,-999.0,88,-99.99,,,0.00,188,weatherlink.com 1.10,2013-02-24 18:16:00,
2013-02-24 11:31:00,22.9,20.0,29.84,West,261,4.0,-999.0,88,-99.99,,,0.00,181,weatherlink.com 1.10,2013-02-24 18:31:00,
2013-02-24 11:47:00,21.1,18.0,29.85,WNW,282,5.0,-999.0,87,-99.99,,,0.00,174,weatherlink.com 1.10,2013-02-24 18:47:00,
2013-02-24 12:01:00,20.6,17.0,29.85,NNW,342,9.0,-999.0,87,-99.99,,,0.00,323,weatherlink.com 1.10,2013-02-24 19:01:00,
2013-02-24 12:16:00,21.1,18.0,29.85,WNW,298,0.0,-999.0,87,-99.99,,,0.00,406,weatherlink.com 1.10,2013-02-24 19:16:00,
2013-02-24 12:31:00,21.1,18.0,29.86,NW,307,14.0,-999.0,87,-99.99,,,0.00,338,weatherlink.com 1.10,2013-02-24 19:31:00,
2013-02-24 12:46:00,21.6,18.0,29.86,WNW,298,6.0,-999.0,87,-99.99,,,0.00,422,weatherlink.com 1.10,2013-02-24 19:46:00,
2013-02-24 13:01:00,21.6,18.0,29.87,NNE,14,8.0,-999.0,86,-99.99,,,0.00,360,weatherlink.com 1.10,2013-02-24 20:01:00,
2013-02-24 13:16:00,21.1,18.0,29.87,NNW,333,1.0,-999.0,86,-99.99,,,0.00,192,weatherlink.com 1.10,2013-02-24 20:16:00,
2013-02-24 13:31:00,20.6,17.0,29.88,NW,313,16.0,-999.0,86,-99.99,,,0.00,206,weatherlink.com 1.10,2013-02-24 20:31:00,
2013-02-24 13:46:00,20.2,16.0,29.88,North,5,5.0,-999.0,85,-99.99,,,0.00,362,weatherlink.com 1.10,2013-02-24 20:46:00,
2013-02-24 14:01:00,20.5,17.0,29.89,NNW,333,3.0,-999.0,86,-99.99,,,0.00,325,weatherlink.com 1.10,2013-02-24 21:01:00,
2013-02-24 14:16:00,20.6,17.0,29.90,NW,312,2.0,-999.0,85,-99.99,,,0.00,246,weatherlink.com 1.10,2013-02-24 21:16:00,
2013-02-24 14:31:00,20.5,17.0,29.91,NW,309,7.0,-999.0,85,-99.99,,,0.00,306,weatherlink.com 1.10,2013-02-24 21:31:00,
2013-02-24 14:46:00,20.6,17.0,29.92,NW,305,3.0,-999.0,86,-99.99,,,0.00,172,weatherlink.com 1.10,2013-02-24 21:46:00,
2013-02-24 15:01:00,20.2,16.0,29.93,NW,313,3.0,-999.0,85,-99.99,,,0.00,209,weatherlink.com 1.10,2013-02-24 22:01:00,
2013-02-24 15:16:00,19.7,16.0,29.93,NNE,19,11.0,-999.0,86,-99.99,,,0.00,204,weatherlink.com 1.10,2013-02-24 22:16:00,
2013-02-24 15:31:00,19.5,16.0,29.95,NW,323,21.0,-999.0,86,-99.99,,,0.00,179,weatherlink.com 1.10,2013-02-24 22:31:00,
2013-02-24 15:46:00,19.5,16.0,29.96,West,277,6.0,-999.0,86,-99.99,,,0.00,160,weatherlink.com 1.10,2013-02-24 22:46:00,
2013-02-24 16:01:00,19.2,16.0,29.98,WNW,297,8.0,-999.0,86,-99.99,,,0.00,121,weatherlink.com 1.10,2013-02-24 23:01:00,
2013-02-24 16:16:00,19.1,16.0,29.99,NNW,334,12.0,-999.0,86,-99.99,,,0.00,155,weatherlink.com 1.10,2013-02-24 23:16:00,
2013-02-24 16:31:00,18.8,15.0,30.00,NW,313,7.0,-999.0,86,-99.99,,,0.00,69,weatherlink.com 1.10,2013-02-24 23:31:00,
2013-02-24 16:47:00,18.3,15.0,30.01,NNE,18,17.0,-999.0,86,-99.99,,,0.00,39,weatherlink.com 1.10,2013-02-24 23:47:00,
2013-02-24 17:02:00,17.8,14.0,30.03,NNW,347,3.0,-999.0,86,-99.99,,,0.00,26,weatherlink.com 1.10,2013-02-25 00:02:00,
2013-02-24 17:17:00,17.3,14.0,30.04,NW,317,14.0,-999.0,86,-99.99,,,0.00,14,weatherlink.com 1.10,2013-02-25 00:17:00,
2013-02-24 17:32:00,17.2,14.0,30.05,NNW,346,4.0,-999.0,86,-99.99,,,0.00,7,weatherlink.com 1.10,2013-02-25 00:32:00,
2013-02-24 17:47:00,17.2,14.0,30.06,NW,315,3.0,-999.0,87,-99.99,,,0.00,0,weatherlink.com 1.10,2013-02-25 00:47:00,
2013-02-24 18:17:00,17.0,14.0,30.07,NNW,327,0.0,-999.0,87,-99.99,,,0.00,0,weatherlink.com 1.10,2013-02-25 01:17:00,
2013-02-24 18:32:00,16.9,14.0,30.09,West,263,0.0,-999.0,87,-99.99,,,0.00,0,weatherlink.com 1.10,2013-02-25 01:32:00,
2013-02-24 18:47:00,16.9,14.0,30.10,NW,311,4.0,-999.0,87,-99.99,,,0.00,0,weatherlink.com 1.10,2013-02-25 01:47:00,
2013-02-24 19:02:00,16.9,14.0,30.11,NW,320,12.0,-999.0,87,-99.99,,,0.00,0,weatherlink.com 1.10,2013-02-25 02:02:00,
2013-02-24 19:17:00,16.9,14.0,30.12,NNW,344,15.0,-999.0,87,-99.99,,,0.00,0,weatherlink.com 1.10,2013-02-25 02:17:00,
2013-02-24 19:32:00,16.9,14.0,30.12,NE,39,14.0,-999.0,87,-99.99,,,0.00,0,weatherlink.com 1.10,2013-02-25 02:32:00,
2013-02-24 19:47:00,16.7,14.0,30.13,WNW,290,6.0,-999.0,87,-99.99,,,0.00,0,weatherlink.com 1.10,2013-02-25 02:47:00,
2013-02-24 20:02:00,16.7,14.0,30.13,NW,304,8.0,-999.0,87,-99.99,,,0.00,0,weatherlink.com 1.10,2013-02-25 03:02:00,
2013-02-24 20:17:00,16.4,13.0,30.14,West,262,5.0,-999.0,87,-99.99,,,0.00,0,weatherlink.com 1.10,2013-02-25 03:17:00,
2013-02-24 20:32:00,16.4,13.0,30.15,NW,318,0.0,-999.0,87,-99.99,,,0.00,0,weatherlink.com 1.10,2013-02-25 03:32:00,
2013-02-24 20:47:00,16.4,13.0,30.15,North,350,0.0,-999.0,87,-99.99,,,0.00,0,weatherlink.com 1.10,2013-02-25 03:47:00,
2013-02-24 21:02:00,16.4,13.0,30.16,North,5,2.0,-999.0,87,-99.99,,,0.00,0,weatherlink.com 1.10,2013-02-25 04:02:00,
2013-02-24 21:17:00,16.2,13.0,30.16,West,279,5.0,-999.0,87,-99.99,,,0.00,0,weatherlink.com 1.10,2013-02-25 04:17:00,
2013-02-24 21:32:00,16.1,13.0,30.16,WNW,295,8.0,-999.0,87,-99.99,,,0.00,0,weatherlink.com 1.10,2013-02-25 04:32:00,
2013-02-24 22:02:00,15.7,13.0,30.16,NW,311,9.0,-999.0,87,-99.99,,,0.00,0,weatherlink.com 1.10,2013-02-25 05:02:00,
2013-02-24 22:17:00,15.7,13.0,30.16,WNW,295,10.0,-999.0,87,-99.99,,,0.00,0,weatherlink.com 1.10,2013-02-25 05:17:00,
2013-02-24 22:32:00,15.7,13.0,30.16,West,269,6.0,-999.0,87,-99.99,,,0.00,0,weatherlink.com 1.10,2013-02-25 05:32:00,
2013-02-24 22:47:00,15.7,13.0,30.17,NW,314,1.0,-999.0,87,-99.99,,,0.00,0,weatherlink.com 1.10,2013-02-25 05:47:00,
2013-02-24 23:02:00,15.7,13.0,30.17,NW,308,0.0,-999.0,87,-99.99,,,0.00,0,weatherlink.com 1.10,2013-02-25 06:02:00,
2013-02-24 23:17:00,15.4,12.0,30.17,NW,307,9.0,-999.0,87,-99.99,,,0.00,0,weatherlink.com 1.10,2013-02-25 06:17:00,
2013-02-24 23:33:00,15.2,12.0,30.17,NW,309,22.0,-999.0,87,-99.99,,,0.00,0,weatherlink.com 1.10,2013-02-25 06:33:00,
2013-02-24 23:48:00,15.2,12.0,30.18,WNW,284,7.0,-999.0,87,-99.99,,,0.00,0,weatherlink.com 1.10,2013-02-25 06:48:00,